Time;durP1;ratioP1;P1;durP2;ratioP2;P2;SDS_P1;SDS_P2;PMS_P1;PMS_P2;Temp;Humidity;BMP_temperature;BMP_pressure;BME280_temperature;BME280_humidity;BME280_pressure;Samples;Min_cycle;Max_cycle;Signal;HPM_P1;HPM_P2
2022/10/15 05:04:11;;;;;;;1.83;0.10;;;15.70;99.90;;;;;;6162158;23;19916;-75
2022/10/15 05:06:38;;;;;;;0.50;0.10;;;15.90;99.90;;;;;;6162810;23;20005;-75
2022/10/15 05:09:14;;;;;;;0.55;0.08;;;15.90;99.90;;;;;;6163189;23;20011;-75
2022/10/15 05:11:46;;;;;;;0.20;0.10;;;16.00;99.90;;;;;;6162925;23;20051;-77
2022/10/15 05:14:12;;;;;;;0.85;0.10;;;16.00;99.90;;;;;;6161974;23;20284;-74
2022/10/15 05:16:38;;;;;;;1.02;0.15;;;16.00;99.90;;;;;;6163036;23;20179;-74
2022/10/15 05:19:07;;;;;;;1.38;0.20;;;15.90;99.90;;;;;;6162479;23;20006;-74
2022/10/15 05:21:36;;;;;;;0.75;0.20;;;15.90;99.90;;;;;;6162741;23;20010;-76
2022/10/15 05:24:05;;;;;;;1.15;0.20;;;15.90;99.90;;;;;;6162379;23;19995;-74
2022/10/15 05:27:09;;;;;;;1.00;0.20;;;15.90;99.90;;;;;;6132640;23;20323;-75
2022/10/15 05:29:37;;;;;;;1.25;0.20;;;15.90;99.90;;;;;;6131966;23;20299;-75
2022/10/15 05:32:03;;;;;;;1.45;0.20;;;15.90;99.90;;;;;;6121708;23;20002;-73
2022/10/15 05:34:29;;;;;;;0.75;0.20;;;15.90;99.90;;;;;;6162523;23;20009;-74
2022/10/15 05:37:09;;;;;;;1.58;0.20;;;15.80;99.90;;;;;;6162075;23;20057;-74
2022/10/15 05:39:38;;;;;;;0.70;0.20;;;15.80;99.90;;;;;;6162553;23;20056;-74
2022/10/15 05:42:03;;;;;;;1.48;0.30;;;15.80;99.90;;;;;;6161958;23;20029;-77
2022/10/15 05:44:39;;;;;;;1.02;0.25;;;15.80;99.90;;;;;;6162870;23;20006;-76
2022/10/15 05:47:10;;;;;;;1.88;0.20;;;15.80;99.90;;;;;;6162201;23;20059;-75
2022/10/15 05:49:37;;;;;;;0.60;0.30;;;15.90;99.90;;;;;;6138076;23;20195;-78
2022/10/15 05:52:16;;;;;;;1.05;0.10;;;15.90;99.90;;;;;;6162867;23;20065;-75
2022/10/15 05:55:07;;;;;;;0.30;0.10;;;15.90;99.90;;;;;;6161867;23;20005;-76
2022/10/15 05:57:33;;;;;;;2.72;0.30;;;15.90;99.90;;;;;;6162261;23;20006;-75
2022/10/15 06:00:04;;;;;;;1.73;0.20;;;15.80;99.90;;;;;;6162630;23;20005;-77
2022/10/15 06:02:37;;;;;;;1.05;0.32;;;15.80;99.90;;;;;;6180413;23;20040;-77
2022/10/15 06:05:05;;;;;;;0.28;0.13;;;15.80;99.90;;;;;;6193213;23;20057;-76
2022/10/15 06:07:31;;;;;;;0.77;0.20;;;15.80;99.90;;;;;;6193081;23;20202;-75
2022/10/15 06:09:59;;;;;;;;;;;15.80;99.90;;;;;;6193477;23;20029;-76
2022/10/15 06:12:27;;;;;;;0.93;0.20;;;15.80;99.90;;;;;;6192012;23;19920;-76
2022/10/15 06:14:52;;;;;;;0.85;0.30;;;15.80;99.90;;;;;;6192999;23;20008;-75
2022/10/15 06:17:18;;;;;;;0.93;0.20;;;15.90;99.90;;;;;;6193705;23;20025;-75
2022/10/15 06:19:48;;;;;;;4.15;1.20;;;15.90;99.90;;;;;;6193333;23;20195;-76
2022/10/15 06:22:39;;;;;;;0.93;0.47;;;16.00;99.90;;;;;;6192676;23;20001;-82
2022/10/15 06:25:14;;;;;;;1.05;0.20;;;16.00;99.90;;;;;;6192305;23;20229;-76
2022/10/15 06:27:40;;;;;;;1.45;0.38;;;16.00;99.90;;;;;;6195245;23;20008;-74
2022/10/15 06:30:07;;;;;;;0.93;0.30;;;16.10;99.90;;;;;;6193836;23;20005;-75
2022/10/15 06:32:33;;;;;;;0.93;0.17;;;16.10;99.90;;;;;;6194788;23;20001;-75
2022/10/15 06:35:01;;;;;;;1.25;0.20;;;16.10;99.90;;;;;;6194868;23;20028;-75
2022/10/15 06:38:10;;;;;;;1.13;0.20;;;16.10;99.90;;;;;;6195270;23;20218;-77
2022/10/15 06:40:58;;;;;;;1.13;0.20;;;16.20;99.90;;;;;;6166204;23;20017;-74
2022/10/15 06:43:35;;;;;;;0.73;0.20;;;16.20;99.90;;;;;;6195190;23;20005;-76
2022/10/15 06:46:20;;;;;;;3.40;0.82;;;16.20;99.90;;;;;;6193292;23;20028;-75
2022/10/15 06:48:45;;;;;;;3.28;0.60;;;16.20;99.90;;;;;;6195378;23;20279;-74
2022/10/15 06:51:12;;;;;;;1.08;0.22;;;16.20;99.90;;;;;;6194859;23;20314;-75
2022/10/15 06:53:46;;;;;;;1.00;0.30;;;16.20;99.90;;;;;;6195193;23;20001;-74
2022/10/15 06:56:11;;;;;;;1.30;0.30;;;16.10;99.90;;;;;;6194486;23;20039;-76
2022/10/15 06:58:49;;;;;;;1.20;0.35;;;16.20;99.90;;;;;;6195023;23;20011;-78
2022/10/15 07:01:16;;;;;;;0.85;0.20;;;16.20;99.90;;;;;;6194255;23;20012;-77
2022/10/15 07:04:06;;;;;;;2.45;0.30;;;16.10;99.90;;;;;;6163827;23;20103;-77
2022/10/15 07:06:47;;;;;;;1.35;0.38;;;16.20;99.90;;;;;;6165250;23;20002;-78
2022/10/15 07:09:15;;;;;;;2.40;0.35;;;16.20;99.90;;;;;;6135141;23;20202;-76
2022/10/15 07:11:44;;;;;;;4.47;0.30;;;16.20;99.90;;;;;;6164786;23;20001;-74
2022/10/15 07:14:14;;;;;;;0.73;0.30;;;16.30;99.90;;;;;;6163454;23;20005;-75
2022/10/15 07:16:47;;;;;;;2.55;0.30;;;16.30;99.90;;;;;;6163859;23;20006;-75
2022/10/15 07:19:13;;;;;;;4.55;0.40;;;16.30;99.90;;;;;;6164579;23;20006;-74
2022/10/15 07:21:38;;;;;;;2.35;0.40;;;16.30;99.90;;;;;;6163534;23;20023;-73
2022/10/15 07:24:05;;;;;;;1.42;0.30;;;16.30;99.90;;;;;;6164737;23;20010;-75
2022/10/15 07:26:32;;;;;;;0.67;0.27;;;16.40;99.90;;;;;;6165424;23;20183;-74
2022/10/15 07:29:02;;;;;;;1.30;0.35;;;16.40;99.90;;;;;;6163721;23;20002;-76
2022/10/15 07:31:29;;;;;;;3.53;0.60;;;16.40;99.90;;;;;;6165003;23;20017;-75
2022/10/15 07:34:01;;;;;;;2.55;0.43;;;16.50;99.90;;;;;;6163970;23;20001;-76
2022/10/15 07:36:27;;;;;;;2.92;0.60;;;16.60;99.90;;;;;;6164780;23;20005;-76
2022/10/15 07:38:55;;;;;;;1.80;0.35;;;16.70;99.90;;;;;;6164585;23;20013;-75
2022/10/15 07:41:22;;;;;;;2.35;0.40;;;16.80;99.90;;;;;;6164978;23;20020;-75
2022/10/15 07:43:51;;;;;;;1.88;0.40;;;16.90;99.90;;;;;;6164584;23;19993;-74
2022/10/15 07:46:17;;;;;;;0.88;0.30;;;16.90;99.90;;;;;;6164281;23;20075;-79
2022/10/15 07:48:42;;;;;;;2.25;0.30;;;17.00;99.90;;;;;;6165128;23;20008;-77
2022/10/15 07:51:10;;;;;;;1.95;0.47;;;17.00;99.90;;;;;;6138785;23;20009;-77
2022/10/15 07:53:42;;;;;;;2.17;0.52;;;17.10;99.90;;;;;;6138929;23;20001;-77
2022/10/15 07:56:13;;;;;;;1.40;0.35;;;17.10;99.90;;;;;;6138538;23;20009;-78
2022/10/15 07:58:40;;;;;;;1.40;0.20;;;17.10;99.90;;;;;;6162883;23;20009;-79
2022/10/15 08:01:11;;;;;;;1.15;0.30;;;17.10;99.90;;;;;;6163701;23;20065;-77
2022/10/15 08:03:37;;;;;;;1.95;0.63;;;17.00;99.90;;;;;;6192091;23;20005;-76
2022/10/15 08:06:09;;;;;;;2.38;0.40;;;17.00;99.90;;;;;;6193807;23;20009;-78
2022/10/15 08:08:36;;;;;;;2.85;0.50;;;17.00;99.90;;;;;;6193073;23;20004;-76
2022/10/15 08:11:11;;;;;;;0.90;0.30;;;16.90;99.90;;;;;;6194066;23;20008;-77
2022/10/15 08:13:45;;;;;;;2.00;0.50;;;16.90;99.90;;;;;;6194687;23;20341;-77
2022/10/15 08:16:13;;;;;;;0.80;0.30;;;16.80;99.90;;;;;;6193728;23;20005;-78
2022/10/15 08:18:41;;;;;;;1.45;0.40;;;16.70;99.90;;;;;;6194321;23;20008;-76
2022/10/15 08:21:08;;;;;;;1.42;0.40;;;16.70;99.90;;;;;;6167024;23;20004;-77
2022/10/15 08:23:39;;;;;;;1.13;0.50;;;16.70;99.90;;;;;;6168109;23;20108;-78
2022/10/15 08:26:05;;;;;;;1.98;0.47;;;16.80;99.90;;;;;;6193644;23;20001;-76
2022/10/15 08:28:35;;;;;;;1.02;0.30;;;16.90;99.90;;;;;;6194168;23;20326;-73
2022/10/15 08:31:08;;;;;;;1.17;0.40;;;17.10;99.90;;;;;;6191887;23;20005;-73
2022/10/15 08:33:37;;;;;;;2.17;0.50;;;17.20;99.90;;;;;;6167136;23;20243;-77
2022/10/15 08:36:05;;;;;;;1.35;0.52;;;17.50;99.90;;;;;;6193190;23;20036;-73
2022/10/15 08:38:45;;;;;;;1.15;0.30;;;17.70;99.90;;;;;;6194187;23;20009;-74
2022/10/15 08:41:38;;;;;;;2.63;0.50;;;17.90;99.90;;;;;;6193814;23;20025;-74
2022/10/15 08:44:16;;;;;;;2.13;0.40;;;18.20;99.90;;;;;;6192179;23;19997;-71
2022/10/15 08:46:49;;;;;;;2.15;0.80;;;18.30;99.90;;;;;;6193120;23;20005;-74
2022/10/15 08:49:48;;;;;;;3.88;0.35;;;18.50;99.90;;;;;;6193843;23;20186;-72
2022/10/15 08:52:38;;;;;;;1.52;0.60;;;18.40;99.90;;;;;;6132018;23;20005;-73
2022/10/15 08:58:19;;;;;;;2.50;0.70;;;18.10;99.90;;;;;;6164121;23;20021;-73
2022/10/15 09:01:25;;;;;;;2.58;0.70;;;18.00;99.90;;;;;;6163937;23;20008;-69
2022/10/15 09:04:10;;;;;;;1.20;0.30;;;18.00;99.90;;;;;;6159602;23;20031;-71
2022/10/15 09:06:39;;;;;;;2.00;0.38;;;17.80;99.90;;;;;;6163947;23;20012;-72
2022/10/15 09:09:53;;;;;;;1.55;0.40;;;17.80;99.90;;;;;;6163170;23;19985;-69
2022/10/15 09:12:57;;;;;;;1.83;0.32;;;17.80;99.90;;;;;;6162824;23;20010;-71
2022/10/15 09:15:24;;;;;;;0.75;0.40;;;17.80;99.90;;;;;;6163809;23;20053;-69
2022/10/15 09:17:53;;;;;;;0.68;0.20;;;17.80;99.90;;;;;;6164139;23;20013;-69
2022/10/15 09:20:30;;;;;;;0.93;0.20;;;17.90;99.90;;;;;;6163451;23;20012;-71
2022/10/15 09:23:25;;;;;;;2.10;0.30;;;18.00;99.90;;;;;;6164111;23;20005;-70
2022/10/15 09:26:16;;;;;;;0.77;0.30;;;18.20;99.90;;;;;;6163856;23;20001;-71
2022/10/15 09:29:18;;;;;;;1.05;0.30;;;18.30;99.90;;;;;;6163860;23;20001;-71
2022/10/15 09:32:12;;;;;;;0.77;0.30;;;18.40;99.90;;;;;;6164594;23;20005;-73
2022/10/15 09:34:47;;;;;;;0.77;0.30;;;18.40;99.90;;;;;;6164084;23;20013;-73
2022/10/15 09:37:32;;;;;;;1.45;0.40;;;18.30;99.90;;;;;;6163443;23;20012;-72
2022/10/15 09:40:19;;;;;;;1.63;0.30;;;18.30;99.90;;;;;;6164111;23;20071;-71
2022/10/15 09:42:49;;;;;;;0.70;0.23;;;18.40;99.90;;;;;;6164042;23;20012;-72
2022/10/15 09:45:18;;;;;;;1.48;0.40;;;18.40;99.90;;;;;;6164106;23;20024;-71
2022/10/15 09:47:46;;;;;;;0.70;0.20;;;18.50;99.90;;;;;;6164073;23;20044;-70
2022/10/15 09:50:13;;;;;;;1.52;0.45;;;18.70;99.90;;;;;;6163503;23;20005;-71
2022/10/15 09:52:52;;;;;;;1.35;0.20;;;18.90;99.90;;;;;;6163619;23;20025;-70
2022/10/15 09:55:33;;;;;;;0.70;0.25;;;19.10;99.90;;;;;;6162990;23;20096;-72
2022/10/15 09:58:13;;;;;;;1.02;0.20;;;19.40;99.90;;;;;;6163750;23;20033;-72
2022/10/15 10:01:04;;;;;;;0.75;0.20;;;19.40;99.90;;;;;;6187731;23;20017;-73
2022/10/15 10:03:35;;;;;;;1.73;0.28;;;19.60;99.90;;;;;;6165513;23;20005;-71
2022/10/15 10:06:10;;;;;;;0.70;0.20;;;19.60;99.90;;;;;;6165631;23;20295;-74
2022/10/15 10:08:56;;;;;;;0.70;0.20;;;19.90;99.90;;;;;;6189218;23;20006;-70
2022/10/15 10:11:25;;;;;;;0.52;0.10;;;20.30;99.90;;;;;;6165249;23;20009;-71
2022/10/15 10:13:53;;;;;;;;;;;20.30;99.90;;;;;;6166262;23;20021;-71
2022/10/15 10:16:20;;;;;;;0.55;0.22;;;20.30;99.90;;;;;;6165198;23;20218;-70
2022/10/15 10:19:13;;;;;;;1.08;0.20;;;20.60;99.90;;;;;;6165973;23;20224;-73
2022/10/15 10:21:41;;;;;;;0.40;0.10;;;20.90;99.90;;;;;;6157460;23;20056;-69
2022/10/15 10:24:30;;;;;;;2.42;0.17;;;20.90;99.90;;;;;;6164698;23;20002;-70
2022/10/15 10:26:57;;;;;;;1.33;0.20;;;21.00;99.90;;;;;;6165655;23;20005;-69
2022/10/15 10:29:25;;;;;;;0.57;0.20;;;20.90;99.90;;;;;;6164743;23;20001;-70
2022/10/15 10:31:52;;;;;;;1.95;0.20;;;20.90;99.90;;;;;;6165811;23;20001;-70
2022/10/15 10:34:32;;;;;;;0.85;0.20;;;20.80;99.90;;;;;;6165032;23;20223;-68
2022/10/15 10:37:02;;;;;;;2.38;0.47;;;20.90;99.90;;;;;;6165144;23;20005;-69
2022/10/15 10:39:32;;;;;;;0.85;0.20;;;21.00;99.90;;;;;;6164939;23;20021;-68
2022/10/15 10:42:04;;;;;;;1.58;0.20;;;21.10;99.90;;;;;;6165385;23;20006;-72
2022/10/15 10:44:45;;;;;;;0.75;0.20;;;21.30;99.90;;;;;;6164588;23;20153;-74
2022/10/15 10:47:21;;;;;;;1.75;0.20;;;21.60;99.90;;;;;;6187816;23;20009;-71
2022/10/15 10:49:49;;;;;;;0.80;0.17;;;21.90;99.90;;;;;;6188839;23;20346;-68
2022/10/15 10:52:24;;;;;;;0.93;0.28;;;22.20;99.90;;;;;;6164319;23;20012;-69
2022/10/15 10:55:04;;;;;;;1.58;0.40;;;23.20;99.90;;;;;;6165025;23;20001;-68
2022/10/15 10:57:44;;;;;;;1.00;0.20;;;23.80;99.90;;;;;;6189741;23;20064;-69
2022/10/15 11:00:16;;;;;;;1.60;0.28;;;24.00;99.40;;;;;;6194466;23;20175;-68
2022/10/15 11:02:46;;;;;;;1.00;0.20;;;23.80;99.90;;;;;;6195124;23;20063;-71
2022/10/15 11:05:12;;;;;;;1.67;0.30;;;24.00;99.90;;;;;;6193368;23;20294;-68
2022/10/15 11:08:01;;;;;;;1.23;0.40;;;24.20;99.40;;;;;;6195193;23;20001;-69
2022/10/15 11:10:46;;;;;;;2.35;0.40;;;24.30;99.10;;;;;;6194309;23;20005;-70
2022/10/15 11:13:30;;;;;;;1.35;0.30;;;24.20;98.20;;;;;;6193804;23;20001;-68
2022/10/15 11:16:02;;;;;;;1.98;0.40;;;24.00;97.90;;;;;;6194433;23;20291;-70
2022/10/15 11:18:34;;;;;;;0.90;0.20;;;24.20;97.30;;;;;;6193807;23;20309;-70
2022/10/15 11:21:12;;;;;;;1.98;0.25;;;24.00;97.20;;;;;;6194799;23;20047;-71
2022/10/15 11:23:39;;;;;;;1.42;0.30;;;24.20;97.00;;;;;;6194743;23;20023;-69
2022/10/15 11:26:42;;;;;;;1.48;0.28;;;24.40;96.30;;;;;;6218420;23;20013;-68
2022/10/15 11:29:22;;;;;;;3.05;0.30;;;23.80;96.30;;;;;;6194483;23;20330;-68
2022/10/15 11:32:04;;;;;;;1.63;0.30;;;23.50;97.10;;;;;;6194771;23;20001;-69
2022/10/15 11:34:47;;;;;;;1.02;0.30;;;23.60;97.20;;;;;;6192979;23;20036;-70
2022/10/15 11:37:54;;;;;;;2.15;0.43;;;24.40;96.40;;;;;;6192639;23;20235;-70
2022/10/15 11:40:38;;;;;;;1.35;0.30;;;24.90;95.20;;;;;;6192936;23;20005;-68
2022/10/15 11:43:13;;;;;;;1.70;0.35;;;24.50;94.80;;;;;;6203214;23;20019;-70
2022/10/15 11:46:01;;;;;;;1.63;0.30;;;23.90;95.50;;;;;;6221666;23;20286;-69
2022/10/15 11:48:45;;;;;;;3.72;0.50;;;23.50;96.30;;;;;;6222967;23;20028;-68
2022/10/15 11:51:42;;;;;;;1.38;0.30;;;23.10;96.80;;;;;;6223189;23;20009;-71
2022/10/15 11:54:28;;;;;;;2.35;0.40;;;22.90;96.90;;;;;;6222895;23;20321;-69
2022/10/15 11:56:58;;;;;;;1.40;0.30;;;22.70;97.10;;;;;;6222933;23;20020;-70
2022/10/15 11:59:45;;;;;;;;;;;22.60;97.00;;;;;;6196984;23;20123;-71
2022/10/15 12:02:36;;;;;;;1.20;0.20;;;22.90;97.10;;;;;;6222911;23;19907;-68
2022/10/15 12:05:07;;;;;;;1.10;0.20;;;24.50;95.60;;;;;;6222691;23;20001;-69
2022/10/15 12:07:38;;;;;;;1.05;0.20;;;26.20;92.80;;;;;;6222463;23;20023;-69
2022/10/15 12:10:11;;;;;;;1.10;0.25;;;26.70;91.90;;;;;;6223404;23;20004;-69
2022/10/15 12:12:52;;;;;;;2.40;0.82;;;27.00;91.10;;;;;;6221717;23;20103;-68
2022/10/15 12:15:24;;;;;;;2.08;0.20;;;26.40;90.50;;;;;;6222155;23;20064;-69
2022/10/15 12:18:34;;;;;;;0.90;0.20;;;24.70;91.70;;;;;;6222469;23;20031;-69
2022/10/15 12:20:59;;;;;;;2.45;0.52;;;23.80;93.60;;;;;;6223698;23;20107;-71
2022/10/15 12:23:37;;;;;;;1.13;0.30;;;22.70;94.60;;;;;;6223068;23;20096;-68
2022/10/15 12:26:26;;;;;;;1.75;0.32;;;22.40;95.70;;;;;;6224865;23;20012;-70
2022/10/15 12:28:55;;;;;;;0.77;0.20;;;21.90;96.10;;;;;;6224266;23;20007;-69
2022/10/15 12:31:22;;;;;;;0.85;0.20;;;21.80;96.80;;;;;;6223865;23;20004;-70
2022/10/15 12:33:55;;;;;;;0.93;0.20;;;21.70;96.90;;;;;;6223947;23;20000;-68
2022/10/15 12:36:27;;;;;;;0.63;0.20;;;21.40;97.10;;;;;;6223679;23;20168;-69
2022/10/15 12:39:01;;;;;;;2.30;0.30;;;21.20;97.60;;;;;;6223949;23;20004;-69
2022/10/15 12:41:53;;;;;;;1.20;0.20;;;20.80;98.00;;;;;;6223340;23;20336;-68
2022/10/15 12:44:29;;;;;;;1.80;0.30;;;20.80;98.80;;;;;;6219220;23;20004;-69
2022/10/15 12:46:56;;;;;;;1.70;0.30;;;20.70;98.80;;;;;;6224179;23;20000;-68
2022/10/15 12:49:31;;;;;;;0.50;0.20;;;20.70;98.90;;;;;;6223346;23;20001;-68
2022/10/15 12:52:01;;;;;;;1.98;0.30;;;20.50;99.00;;;;;;6223538;23;20001;-70
2022/10/15 12:54:45;;;;;;;1.00;0.30;;;20.40;99.20;;;;;;6223424;23;20000;-70
2022/10/15 12:57:42;;;;;;;2.15;0.40;;;20.60;99.60;;;;;;6199893;23;20008;-69
2022/10/15 13:00:26;;;;;;;1.20;0.30;;;20.50;99.80;;;;;;6183569;23;20028;-69
2022/10/15 13:02:54;;;;;;;3.00;0.30;;;20.50;99.90;;;;;;6194187;23;20005;-70
2022/10/15 13:05:31;;;;;;;1.73;0.50;;;20.50;99.90;;;;;;6193247;23;20072;-70
2022/10/15 13:07:59;;;;;;;2.70;0.38;;;20.30;99.90;;;;;;6193984;23;20094;-70
2022/10/15 13:10:29;;;;;;;2.53;0.50;;;20.30;99.90;;;;;;6193194;23;20105;-71
2022/10/15 13:13:11;;;;;;;1.88;0.50;;;20.10;99.90;;;;;;6193316;23;20004;-71
2022/10/15 13:15:39;;;;;;;1.38;0.30;;;20.00;99.90;;;;;;6192751;23;20007;-69
2022/10/15 13:18:12;;;;;;;1.63;0.30;;;20.00;99.90;;;;;;6193595;23;20002;-70
2022/10/15 13:20:43;;;;;;;3.30;0.40;;;19.90;99.90;;;;;;6192675;23;20183;-68
2022/10/15 13:23:21;;;;;;;2.00;0.40;;;20.00;99.90;;;;;;6167230;23;20005;-68
2022/10/15 13:25:47;;;;;;;;;;;20.00;99.90;;;;;;6193622;23;20005;-69
2022/10/15 13:28:31;;;;;;;3.63;1.42;;;19.80;99.90;;;;;;6193616;23;19896;-69
2022/10/15 13:30:58;;;;;;;2.45;0.65;;;19.80;99.90;;;;;;6193158;23;20068;-70
2022/10/15 13:33:24;;;;;;;1.00;0.30;;;19.20;99.90;;;;;;6193197;23;20032;-72
2022/10/15 13:35:51;;;;;;;1.40;0.47;;;18.90;99.90;;;;;;6195441;23;20080;-71
2022/10/15 13:38:24;;;;;;;2.30;0.40;;;18.70;99.90;;;;;;6194936;23;20008;-71
2022/10/15 13:40:53;;;;;;;2.03;0.60;;;18.50;99.90;;;;;;6197014;23;20056;-71
2022/10/15 13:43:23;;;;;;;1.35;0.50;;;18.60;99.90;;;;;;6196440;23;20009;-69
2022/10/15 13:45:57;;;;;;;2.45;0.70;;;18.50;99.90;;;;;;6196972;23;20001;-69
2022/10/15 13:48:26;;;;;;;2.13;0.50;;;18.50;99.90;;;;;;6195799;23;20202;-71
2022/10/15 13:50:59;;;;;;;1.95;0.50;;;18.60;99.90;;;;;;6196928;23;20005;-69
2022/10/15 13:53:30;;;;;;;1.63;0.52;;;18.60;99.90;;;;;;6196539;23;20047;-68
2022/10/15 13:55:58;;;;;;;1.73;0.40;;;18.80;99.90;;;;;;6196418;23;20009;-69
2022/10/15 13:58:25;;;;;;;;;;;18.80;99.90;;;;;;6196655;23;20005;-70
2022/10/15 14:01:15;;;;;;;2.40;0.55;;;18.80;99.90;;;;;;6170180;23;19908;-68
2022/10/15 14:03:55;;;;;;;1.52;0.50;;;18.90;99.90;;;;;;6195779;23;20007;-68
2022/10/15 14:06:24;;;;;;;1.88;0.40;;;18.80;99.90;;;;;;6169954;23;20005;-68
2022/10/15 14:09:12;;;;;;;3.78;0.50;;;18.80;99.90;;;;;;6196638;23;19988;-70
2022/10/15 14:11:41;;;;;;;2.63;0.57;;;18.80;99.90;;;;;;6196346;23;20300;-71
2022/10/15 14:14:26;;;;;;;1.85;0.57;;;18.60;99.90;;;;;;6196603;23;20005;-68
2022/10/15 14:16:54;;;;;;;2.42;0.35;;;18.70;99.90;;;;;;6196749;23;20001;-70
2022/10/15 14:19:25;;;;;;;2.53;0.50;;;18.70;99.90;;;;;;6195766;23;20047;-70
2022/10/15 14:21:52;;;;;;;2.83;0.90;;;18.80;99.90;;;;;;6196141;23;20009;-70
2022/10/15 14:24:37;;;;;;;2.30;0.50;;;18.80;99.90;;;;;;6196287;23;20001;-70
2022/10/15 14:27:13;;;;;;;2.03;0.40;;;19.00;99.90;;;;;;6196762;23;20001;-69
2022/10/15 14:29:46;;;;;;;2.03;0.52;;;18.70;99.90;;;;;;6195865;23;20262;-68
2022/10/15 14:32:24;;;;;;;3.80;0.73;;;18.70;99.90;;;;;;6196328;23;20035;-69
2022/10/15 14:34:57;;;;;;;2.10;0.55;;;18.70;99.90;;;;;;6196792;23;20060;-67
2022/10/15 14:37:35;;;;;;;2.78;0.65;;;18.80;99.90;;;;;;6196278;23;20287;-70
2022/10/15 14:40:10;;;;;;;3.92;0.60;;;18.90;99.90;;;;;;6194948;23;20016;-68
2022/10/15 14:42:44;;;;;;;2.03;0.70;;;18.90;99.90;;;;;;6194492;23;20239;-68
2022/10/15 14:45:33;;;;;;;1.95;0.50;;;19.00;99.90;;;;;;6196361;23;20012;-69
2022/10/15 14:48:06;;;;;;;3.50;0.70;;;19.10;99.90;;;;;;6179046;23;20215;-70
2022/10/15 14:50:34;;;;;;;2.17;0.63;;;19.20;99.90;;;;;;6194075;23;20052;-70
2022/10/15 14:53:05;;;;;;;3.08;0.50;;;19.30;99.90;;;;;;6194851;23;20052;-69
2022/10/15 14:55:40;;;;;;;4.63;0.70;;;19.20;99.90;;;;;;6193219;23;20008;-68
2022/10/15 14:58:09;;;;;;;6.80;0.73;;;19.20;99.90;;;;;;6194625;23;20199;-70
2022/10/15 15:00:42;;;;;;;;;;;19.20;99.90;;;;;;6194708;23;20001;-70
2022/10/15 15:03:16;;;;;;;1.55;0.40;;;19.20;99.90;;;;;;6194822;23;19904;-68
2022/10/15 15:05:51;;;;;;;1.45;0.40;;;19.20;99.90;;;;;;6194488;23;20024;-69
2022/10/15 15:08:18;;;;;;;1.80;0.50;;;19.20;99.90;;;;;;6194710;23;20001;-69
2022/10/15 15:10:44;;;;;;;3.00;0.75;;;19.30;99.90;;;;;;6194320;23;20039;-68
2022/10/15 15:13:19;;;;;;;2.72;0.68;;;19.40;99.90;;;;;;6194925;23;20103;-68
2022/10/15 15:15:45;;;;;;;5.80;0.80;;;19.70;99.90;;;;;;6194418;23;20017;-69
2022/10/15 15:18:11;;;;;;;1.73;0.57;;;20.00;99.90;;;;;;6194915;23;20008;-69
2022/10/15 15:20:39;;;;;;;1.42;0.40;;;20.20;99.90;;;;;;6193613;23;20005;-68
2022/10/15 15:23:05;;;;;;;2.60;0.57;;;20.40;99.90;;;;;;6194852;23;20005;-69
2022/10/15 15:25:35;;;;;;;1.40;0.50;;;20.50;99.90;;;;;;6193726;23;19989;-69
2022/10/15 15:28:02;;;;;;;2.22;0.43;;;20.50;99.90;;;;;;6193044;23;20005;-67
2022/10/15 15:30:30;;;;;;;2.40;0.63;;;20.50;99.90;;;;;;6193664;23;20283;-69
2022/10/15 15:32:56;;;;;;;1.60;0.60;;;20.50;99.90;;;;;;6193313;23;20011;-68
2022/10/15 15:35:35;;;;;;;1.48;0.35;;;20.40;99.90;;;;;;6194161;23;20073;-69
2022/10/15 15:38:01;;;;;;;1.15;0.40;;;21.50;99.90;;;;;;6194190;23;20005;-69
2022/10/15 15:40:27;;;;;;;1.55;0.50;;;23.10;99.90;;;;;;6194097;23;20314;-70
2022/10/15 15:42:52;;;;;;;1.33;0.40;;;24.50;99.20;;;;;;6194733;23;20012;-70
2022/10/15 15:45:24;;;;;;;2.00;0.50;;;24.30;98.00;;;;;;6194337;23;20028;-71
2022/10/15 15:47:55;;;;;;;1.13;0.38;;;23.60;98.20;;;;;;6194551;23;20005;-69
2022/10/15 15:50:23;;;;;;;2.88;0.98;;;22.80;99.30;;;;;;6194461;23;20223;-69
2022/10/15 15:52:49;;;;;;;2.30;0.88;;;22.40;99.90;;;;;;6193437;23;20025;-68
2022/10/15 15:55:15;;;;;;;1.42;0.60;;;22.00;99.90;;;;;;6193772;23;20009;-71
2022/10/15 15:57:40;;;;;;;1.98;0.50;;;21.70;99.90;;;;;;6193211;23;20005;-70
2022/10/15 16:00:08;;;;;;;1.65;0.57;;;21.40;99.90;;;;;;6193553;23;20063;-71
2022/10/15 16:02:35;;;;;;;1.83;0.60;;;21.10;99.90;;;;;;6192258;23;20394;-69
2022/10/15 16:05:01;;;;;;;1.10;0.40;;;20.90;99.90;;;;;;6168025;23;20229;-69
2022/10/15 16:07:27;;;;;;;2.40;0.63;;;20.60;99.90;;;;;;6193327;23;20005;-68
2022/10/15 16:09:53;;;;;;;4.38;1.50;;;20.40;99.90;;;;;;6192513;23;20042;-70
2022/10/15 16:12:19;;;;;;;2.08;0.90;;;20.10;99.90;;;;;;6193767;23;20334;-75
2022/10/15 16:14:45;;;;;;;2.00;0.60;;;20.00;99.90;;;;;;6193231;23;20000;-71
2022/10/15 16:17:10;;;;;;;3.92;1.02;;;19.80;99.90;;;;;;6194070;23;20001;-70
2022/10/15 16:19:36;;;;;;;1.10;0.32;;;19.60;99.90;;;;;;6193362;23;20044;-68
2022/10/15 16:22:02;;;;;;;2.97;0.60;;;19.40;99.90;;;;;;6143140;23;20025;-71
2022/10/15 16:24:28;;;;;;;2.90;0.80;;;19.20;99.90;;;;;;6193422;23;20001;-69
2022/10/15 16:26:54;;;;;;;3.58;0.90;;;19.10;99.90;;;;;;6194037;23;20257;-70
2022/10/15 16:29:19;;;;;;;3.17;0.60;;;18.90;99.90;;;;;;6193770;23;19993;-70
2022/10/15 16:31:45;;;;;;;1.33;0.50;;;18.80;99.90;;;;;;6192703;23;20024;-72
2022/10/15 16:34:11;;;;;;;2.20;0.70;;;18.60;99.90;;;;;;6193847;23;20023;-69
2022/10/15 16:36:37;;;;;;;5.78;1.77;;;18.50;99.90;;;;;;6193535;23;20047;-68
2022/10/15 16:39:03;;;;;;;1.27;0.70;;;18.30;99.90;;;;;;6193884;23;19993;-70
2022/10/15 16:41:29;;;;;;;2.78;0.60;;;18.20;99.90;;;;;;6193346;23;20012;-70
2022/10/15 16:43:55;;;;;;;1.33;0.57;;;18.10;99.90;;;;;;6193890;23;20167;-70
2022/10/15 16:46:21;;;;;;;2.28;0.90;;;18.00;99.90;;;;;;6193629;23;20003;-71
2022/10/15 16:48:54;;;;;;;2.58;0.43;;;18.00;99.90;;;;;;6193085;23;20001;-69
2022/10/15 16:51:23;;;;;;;2.28;0.60;;;18.00;99.90;;;;;;6192448;23;20047;-69
2022/10/15 16:53:50;;;;;;;2.58;0.65;;;18.00;99.90;;;;;;6191732;23;20304;-71
2022/10/15 16:56:25;;;;;;;2.25;0.45;;;17.90;99.90;;;;;;6191693;23;20016;-71
2022/10/15 16:58:52;;;;;;;2.78;0.65;;;17.90;99.90;;;;;;6192514;23;20028;-71
2022/10/15 17:01:21;;;;;;;2.05;0.65;;;17.90;99.90;;;;;;6192335;23;20064;-72
2022/10/15 17:03:47;;;;;;;2.13;0.60;;;17.90;99.90;;;;;;6191521;23;19993;-72
2022/10/15 17:06:17;;;;;;;2.30;0.90;;;17.90;99.90;;;;;;6191859;23;19997;-71
2022/10/15 17:08:44;;;;;;;1.63;0.70;;;18.00;99.90;;;;;;6190418;23;20168;-70
2022/10/15 17:11:20;;;;;;;3.25;0.55;;;18.00;99.90;;;;;;6192374;23;20001;-71
2022/10/15 17:13:47;;;;;;;3.72;1.88;;;18.00;99.90;;;;;;6192558;23;20005;-70
2022/10/15 17:16:14;;;;;;;2.53;0.60;;;17.90;99.90;;;;;;6134726;23;20243;-73
2022/10/15 17:18:42;;;;;;;2.00;0.55;;;17.90;99.90;;;;;;6133537;23;20002;-70
2022/10/15 17:21:10;;;;;;;4.05;0.90;;;17.90;99.90;;;;;;6133797;23;19998;-71
2022/10/15 17:23:36;;;;;;;3.00;0.60;;;17.90;99.90;;;;;;6133688;23;20057;-70
2022/10/15 17:26:04;;;;;;;3.10;1.00;;;17.80;99.90;;;;;;6133943;23;20006;-70
2022/10/15 17:28:30;;;;;;;2.20;0.57;;;17.80;99.90;;;;;;6133025;23;20017;-69
2022/10/15 17:31:00;;;;;;;1.73;0.65;;;17.80;99.90;;;;;;6132827;23;20200;-69
2022/10/15 17:33:26;;;;;;;3.38;0.88;;;17.70;99.90;;;;;;6131577;23;20237;-70
2022/10/15 17:35:51;;;;;;;2.55;0.82;;;17.70;99.90;;;;;;6132226;23;20002;-70
2022/10/15 17:38:17;;;;;;;1.60;0.50;;;17.60;99.90;;;;;;6132976;23;20348;-71
2022/10/15 17:40:43;;;;;;;1.88;0.73;;;17.60;99.90;;;;;;6131591;23;20228;-71
2022/10/15 17:43:08;;;;;;;2.28;0.90;;;17.60;99.90;;;;;;6132637;23;20049;-71
2022/10/15 17:45:34;;;;;;;4.05;1.08;;;17.60;99.90;;;;;;6132340;23;20002;-70
2022/10/15 17:48:00;;;;;;;3.45;1.08;;;17.60;99.90;;;;;;6107042;23;20018;-70
2022/10/15 17:50:28;;;;;;;15.65;10.95;;;17.60;99.90;;;;;;6132875;23;20006;-70
2022/10/15 17:52:56;;;;;;;2.25;1.02;;;17.50;99.90;;;;;;6132260;23;20272;-70
2022/10/15 17:55:24;;;;;;;2.03;0.60;;;17.50;99.90;;;;;;6132512;23;20045;-69
2022/10/15 17:57:49;;;;;;;2.92;0.80;;;17.60;99.90;;;;;;6161471;23;20016;-70
2022/10/15 18:00:16;;;;;;;2.13;0.80;;;17.50;99.90;;;;;;6162082;23;20009;-71
2022/10/15 18:02:41;;;;;;;1.70;0.70;;;17.60;99.90;;;;;;6161082;23;20056;-71
2022/10/15 18:05:07;;;;;;;3.15;1.00;;;17.50;99.90;;;;;;6162192;23;20048;-70
2022/10/15 18:07:35;;;;;;;;;;;17.50;99.90;;;;;;6162174;23;20001;-71
2022/10/15 18:10:01;;;;;;;2.90;1.13;;;17.50;99.90;;;;;;6162166;23;19931;-69
2022/10/15 18:12:27;;;;;;;3.20;1.10;;;17.40;99.90;;;;;;6161847;23;20012;-70
2022/10/15 18:14:52;;;;;;;3.55;1.20;;;17.40;99.90;;;;;;6161643;23;20008;-70
2022/10/15 18:17:22;;;;;;;2.03;1.00;;;17.40;99.90;;;;;;6161829;23;20010;-69
2022/10/15 18:19:48;;;;;;;3.10;0.80;;;17.30;99.90;;;;;;6160455;23;20029;-69
2022/10/15 18:22:14;;;;;;;1.88;0.70;;;17.30;99.90;;;;;;6162879;23;20002;-70
2022/10/15 18:24:39;;;;;;;3.95;1.27;;;17.30;99.90;;;;;;6163195;23;20175;-70